createdAt,value
2022-08-29T00:00:25.597Z,100616.75
2022-08-29T00:02:57.338Z,100619.81
2022-08-29T00:05:29.915Z,100628.59
2022-08-29T00:07:59.350Z,100627.59
2022-08-29T00:10:29.037Z,100632.97
2022-08-29T00:12:57.775Z,100635.00
2022-08-29T00:15:29.487Z,100633.75
2022-08-29T00:17:57.771Z,100641.91
2022-08-29T00:20:33.930Z,100636.34
2022-08-29T00:23:06.291Z,100628.91
2022-08-29T00:25:34.750Z,100629.72
2022-08-29T00:28:06.692Z,100618.28
2022-08-29T00:30:36.108Z,100621.97
2022-08-29T00:33:04.550Z,100622.41
2022-08-29T00:35:35.905Z,100622.19
2022-08-29T00:38:06.574Z,100622.19
2022-08-29T00:40:51.628Z,100623.25
2022-08-29T00:43:32.919Z,100626.28
2022-08-29T00:46:39.009Z,100610.72
2022-08-29T00:49:41.137Z,100613.59
2022-08-29T00:52:39.635Z,100614.81
2022-08-29T00:55:13.611Z,100606.41
2022-08-29T00:57:45.223Z,100612.53
2022-08-29T01:00:14.124Z,100606.00
2022-08-29T01:02:43.031Z,100601.31
2022-08-29T01:05:15.338Z,100608.66
2022-08-29T01:07:44.076Z,100609.84
2022-08-29T01:10:33.047Z,100609.06
2022-08-29T01:13:03.392Z,100627.81
2022-08-29T01:15:33.691Z,100630.22
2022-08-29T01:18:06.868Z,100631.00
2022-08-29T01:20:58.435Z,100632.28
2022-08-29T01:23:39.214Z,100636.63
2022-08-29T01:26:14.346Z,100642.63
2022-08-29T01:28:49.498Z,100638.75
2022-08-29T01:31:37.629Z,100640.53
2022-08-29T01:34:12.503Z,100639.78
2022-08-29T01:36:43.623Z,100626.69
2022-08-29T01:39:12.016Z,100629.75
2022-08-29T01:41:42.295Z,100623.34
2022-08-29T01:44:13.967Z,100610.00
2022-08-29T01:46:42.162Z,100610.44
2022-08-29T01:49:11.549Z,100613.91
2022-08-29T01:51:41.427Z,100619.25
2022-08-29T01:54:11.811Z,100615.19
2022-08-29T01:56:49.792Z,100618.94
2022-08-29T01:59:22.784Z,100612.00
2022-08-29T02:02:06.085Z,100613.84
2022-08-29T02:04:34.366Z,100618.13
2022-08-29T02:07:02.610Z,100610.91
2022-08-29T02:09:30.904Z,100614.22
2022-08-29T02:12:01.706Z,100618.88
2022-08-29T02:14:30.942Z,100609.81
2022-08-29T02:16:59.075Z,100611.00
2022-08-29T02:19:27.512Z,100609.31
2022-08-29T02:21:58.918Z,100608.22
2022-08-29T02:24:27.172Z,100601.47
2022-08-29T02:26:57.064Z,100605.41
2022-08-29T02:29:34.254Z,100602.50
2022-08-29T02:32:12.316Z,100607.81
2022-08-29T02:34:44.839Z,100607.19
2022-08-29T02:37:16.292Z,100603.09
2022-08-29T02:39:44.498Z,100600.88
2022-08-29T02:42:12.654Z,100595.34
2022-08-29T02:44:40.877Z,100598.75
2022-08-29T02:47:09.390Z,100602.25
2022-08-29T02:49:39.541Z,100608.16
2022-08-29T02:52:08.638Z,100598.53
2022-08-29T02:54:37.347Z,100594.22
2022-08-29T02:57:06.274Z,100598.28
2022-08-29T02:59:34.487Z,100598.28
2022-08-29T03:02:02.813Z,100591.31
2022-08-29T03:04:31.096Z,100583.50
2022-08-29T03:06:59.371Z,100582.88
2022-08-29T03:09:27.551Z,100582.69
2022-08-29T03:11:56.584Z,100596.81
2022-08-29T03:14:25.390Z,100597.19
2022-08-29T03:16:54.865Z,100612.94
2022-08-29T03:19:23.075Z,100604.53
2022-08-29T03:21:51.275Z,100602.50
2022-08-29T03:24:26.896Z,100605.59
2022-08-29T03:26:56.486Z,100603.75
2022-08-29T03:29:25.682Z,100597.59
2022-08-29T03:31:58.250Z,100603.13
2022-08-29T03:34:28.058Z,100606.38
2022-08-29T03:36:57.141Z,100611.25
2022-08-29T03:39:25.943Z,100594.41
2022-08-29T03:41:54.112Z,100611.75
2022-08-29T03:44:22.859Z,100611.38
2022-08-29T03:46:53.046Z,100617.31
2022-08-29T03:49:21.260Z,100611.69
2022-08-29T03:51:50.082Z,100612.75
2022-08-29T03:54:18.344Z,100618.13
2022-08-29T03:56:47.681Z,100624.53
2022-08-29T03:59:16.864Z,100633.13
2022-08-29T04:01:48.076Z,100632.31
2022-08-29T04:04:36.752Z,100644.41
2022-08-29T04:07:06.546Z,100647.00
2022-08-29T04:09:37.787Z,100653.03
2022-08-29T04:12:06.478Z,100666.22
2022-08-29T04:14:35.386Z,100667.34
2022-08-29T04:17:04.338Z,100677.09
2022-08-29T04:19:32.807Z,100675.47
2022-08-29T04:22:01.226Z,100691.41
2022-08-29T04:24:31.499Z,100695.31
2022-08-29T04:26:59.814Z,100703.34
2022-08-29T04:29:28.058Z,100709.13
2022-08-29T04:31:56.276Z,100716.69
2022-08-29T04:34:24.433Z,100720.81
2022-08-29T04:36:52.690Z,100727.59
2022-08-29T04:39:24.405Z,100726.78
2022-08-29T04:41:52.983Z,100730.63
2022-08-29T04:44:21.232Z,100732.47
2022-08-29T04:46:51.587Z,100733.84
2022-08-29T04:49:21.635Z,100740.75
2022-08-29T04:51:53.755Z,100747.25
2022-08-29T04:54:22.070Z,100741.47
2022-08-29T04:56:50.330Z,100746.34
2022-08-29T04:59:19.598Z,100745.13
2022-08-29T05:01:48.862Z,100748.72
2022-08-29T05:04:17.132Z,100747.06
2022-08-29T05:06:45.347Z,100747.31
2022-08-29T05:09:13.614Z,100752.56
2022-08-29T05:11:42.735Z,100757.88
2022-08-29T05:14:11.427Z,100758.06
2022-08-29T05:16:39.809Z,100761.28
2022-08-29T05:19:09.698Z,100763.53
2022-08-29T05:21:39.908Z,100759.06
2022-08-29T05:24:11.287Z,100756.47
2022-08-29T05:26:43.009Z,100754.34
2022-08-29T05:29:13.920Z,100754.88
2022-08-29T05:31:44.494Z,100754.38
2022-08-29T05:34:31.912Z,100750.44
2022-08-29T05:37:04.682Z,100744.78
2022-08-29T05:39:33.854Z,100755.31
2022-08-29T05:42:02.490Z,100752.91
2022-08-29T05:44:35.209Z,100748.91
2022-08-29T05:47:06.066Z,100743.69
2022-08-29T05:49:38.060Z,100746.88
2022-08-29T05:52:07.727Z,100737.66
2022-08-29T05:54:39.087Z,100736.34
2022-08-29T05:57:09.256Z,100730.31
2022-08-29T05:59:38.100Z,100720.53
2022-08-29T06:02:09.436Z,100724.53
2022-08-29T06:04:38.469Z,100713.69
2022-08-29T06:07:07.867Z,100711.88
2022-08-29T06:09:37.301Z,100708.59
2022-08-29T06:12:07.143Z,100718.22
2022-08-29T06:14:36.237Z,100722.16
2022-08-29T06:17:08.085Z,100722.94
2022-08-29T06:19:39.542Z,100718.16
2022-08-29T06:22:10.345Z,100720.19
2022-08-29T06:24:39.884Z,100717.34
2022-08-29T06:27:13.439Z,100715.91
2022-08-29T06:29:43.233Z,100729.44
2022-08-29T06:32:13.092Z,100729.69
2022-08-29T06:34:41.501Z,100735.44
2022-08-29T06:37:09.795Z,100736.50
2022-08-29T06:39:38.001Z,100736.38
2022-08-29T06:42:06.406Z,100741.81
2022-08-29T06:44:35.259Z,100747.56
2022-08-29T06:47:03.523Z,100743.88
2022-08-29T06:49:33.412Z,100741.78
2022-08-29T06:52:01.642Z,100749.94
2022-08-29T06:54:29.989Z,100744.78
2022-08-29T06:56:59.778Z,100746.50
2022-08-29T06:59:28.093Z,100747.19
2022-08-29T07:01:56.441Z,100744.16
2022-08-29T07:04:26.510Z,100749.03
2022-08-29T07:06:55.262Z,100745.56
2022-08-29T07:09:23.718Z,100743.75
2022-08-29T07:11:53.953Z,100749.56
2022-08-29T07:14:22.285Z,100737.06
2022-08-29T07:16:50.485Z,100746.22
2022-08-29T07:19:18.852Z,100749.63
2022-08-29T07:21:48.902Z,100751.75
2022-08-29T07:24:18.544Z,100758.19
2022-08-29T07:26:47.123Z,100753.28
2022-08-29T07:29:21.016Z,100757.00
2022-08-29T07:31:49.848Z,100764.69
2022-08-29T07:34:20.728Z,100762.81
2022-08-29T07:36:49.124Z,100762.44
2022-08-29T07:39:20.444Z,100759.47
2022-08-29T07:41:49.113Z,100763.91
2022-08-29T07:44:18.527Z,100759.28
2022-08-29T07:46:46.987Z,100759.31
2022-08-29T07:49:15.339Z,100759.06
2022-08-29T07:51:44.408Z,100752.53
2022-08-29T07:54:16.900Z,100755.50
2022-08-29T07:56:47.582Z,100756.91
2022-08-29T07:59:17.566Z,100751.56
2022-08-29T08:01:46.303Z,100747.72
2022-08-29T08:04:14.761Z,100749.13
2022-08-29T08:06:43.783Z,100757.41
2022-08-29T08:09:14.074Z,100752.06
2022-08-29T08:11:43.227Z,100749.47
2022-08-29T08:14:12.155Z,100756.91
2022-08-29T08:16:44.345Z,100750.81
2022-08-29T08:19:16.943Z,100761.28
2022-08-29T08:21:49.955Z,100754.41
2022-08-29T08:24:20.299Z,100752.22
2022-08-29T08:26:49.588Z,100759.50
2022-08-29T08:29:18.471Z,100753.75
2022-08-29T08:31:49.963Z,100767.53
2022-08-29T08:34:21.417Z,100760.56
2022-08-29T08:36:50.782Z,100766.97
2022-08-29T08:39:19.696Z,100765.50
2022-08-29T08:42:07.115Z,100761.94
2022-08-29T08:45:09.867Z,100764.06
2022-08-29T08:47:42.923Z,100772.94
2022-08-29T08:50:25.436Z,100768.97
2022-08-29T08:53:07.496Z,100763.88
2022-08-29T08:55:50.652Z,100773.28
2022-08-29T08:58:33.376Z,100772.53
2022-08-29T09:01:11.080Z,100775.41
2022-08-29T09:04:25.512Z,100778.38
2022-08-29T09:07:04.064Z,100770.69
2022-08-29T09:09:56.484Z,100769.88
2022-08-29T09:12:45.881Z,100775.69
2022-08-29T09:15:26.016Z,100773.53
2022-08-29T09:18:13.466Z,100774.28
2022-08-29T09:20:45.152Z,100767.25
2022-08-29T09:23:31.684Z,100774.16
2022-08-29T09:25:59.851Z,100771.03
2022-08-29T09:28:30.068Z,100778.47
2022-08-29T09:31:18.208Z,100769.91
2022-08-29T09:33:53.347Z,100777.47
2022-08-29T09:36:48.102Z,100774.88
2022-08-29T09:39:21.834Z,100777.50
2022-08-29T09:42:17.402Z,100771.28
2022-08-29T09:44:57.807Z,100768.50
2022-08-29T09:47:32.977Z,100763.03
2022-08-29T09:50:03.348Z,100763.41
2022-08-29T09:52:32.434Z,100757.56
2022-08-29T09:55:24.696Z,100765.31
2022-08-29T09:58:00.585Z,100758.25
2022-08-29T10:00:36.358Z,100760.59
2022-08-29T10:03:09.003Z,100758.81
2022-08-29T10:05:46.743Z,100754.13
2022-08-29T10:08:27.003Z,100756.47
2022-08-29T10:11:00.907Z,100758.91
2022-08-29T10:13:45.972Z,100757.69
2022-08-29T10:16:53.898Z,100762.19
2022-08-29T10:19:33.020Z,100758.28
2022-08-29T10:24:55.387Z,100765.75
2022-08-29T10:27:35.643Z,100764.03
2022-08-29T10:30:17.618Z,100765.31
2022-08-29T10:32:51.724Z,100769.03
2022-08-29T10:35:30.860Z,100762.69
2022-08-29T10:38:22.866Z,100764.19
2022-08-29T10:41:12.627Z,100754.56
2022-08-29T10:43:59.291Z,100762.22
2022-08-29T10:46:48.982Z,100762.13
2022-08-29T10:49:50.876Z,100761.75
2022-08-29T10:52:38.343Z,100756.38
2022-08-29T10:55:19.644Z,100761.59
2022-08-29T10:58:21.719Z,100760.66
2022-08-29T11:01:14.832Z,100756.09
2022-08-29T11:04:23.868Z,100759.63
2022-08-29T11:07:17.991Z,100759.59
2022-08-29T11:10:05.066Z,100751.50
2022-08-29T11:12:33.351Z,100761.56
2022-08-29T11:15:15.462Z,100764.84
2022-08-29T11:17:49.093Z,100759.97
2022-08-29T11:20:27.469Z,100765.91
2022-08-29T11:23:27.574Z,100764.56
2022-08-29T11:26:01.657Z,100758.28
2022-08-29T11:28:36.737Z,100762.44
2022-08-29T11:31:24.917Z,100759.59
2022-08-29T11:34:20.099Z,100759.19
2022-08-29T11:37:20.574Z,100757.66
2022-08-29T11:40:02.647Z,100753.16
2022-08-29T11:42:50.485Z,100762.94
2022-08-29T11:45:35.527Z,100751.84
2022-08-29T11:48:19.161Z,100745.06
2022-08-29T11:50:49.233Z,100747.50
2022-08-29T11:53:34.010Z,100745.28
2022-08-29T11:56:14.718Z,100743.50
2022-08-29T11:58:50.104Z,100734.66
2022-08-29T12:01:36.613Z,100731.72
2022-08-29T12:04:07.893Z,100737.47
2022-08-29T12:07:00.057Z,100727.66
2022-08-29T12:09:56.068Z,100715.81
2022-08-29T12:12:51.437Z,100721.47
2022-08-29T12:15:51.309Z,100712.81
2022-08-29T12:18:22.388Z,100714.75
2022-08-29T12:20:54.046Z,100707.69
2022-08-29T12:23:30.002Z,100705.41
2022-08-29T12:26:22.011Z,100702.72
2022-08-29T12:29:01.889Z,100690.22
2022-08-29T12:32:02.250Z,100688.53
2022-08-29T12:34:49.738Z,100680.91
2022-08-29T12:37:51.977Z,100678.41
2022-08-29T12:40:41.466Z,100674.66
2022-08-29T12:43:24.543Z,100672.75
2022-08-29T12:45:53.502Z,100677.19
2022-08-29T12:48:40.256Z,100661.38
2022-08-29T12:51:09.507Z,100669.56
2022-08-29T12:53:38.054Z,100670.56
2022-08-29T12:56:22.490Z,100657.69
2022-08-29T12:58:55.872Z,100659.78
2022-08-29T13:01:39.325Z,100651.63
2022-08-29T13:04:19.470Z,100641.50
2022-08-29T13:07:00.543Z,100652.47
2022-08-29T13:09:33.708Z,100637.03
2022-08-29T13:12:24.982Z,100639.84
2022-08-29T13:15:33.006Z,100633.84
2022-08-29T13:18:02.363Z,100640.53
2022-08-29T13:20:43.046Z,100632.31
2022-08-29T13:23:32.169Z,100631.06
2022-08-29T13:26:17.632Z,100628.31
2022-08-29T13:28:58.144Z,100622.91
2022-08-29T13:31:37.488Z,100619.91
2022-08-29T13:34:12.486Z,100612.91
2022-08-29T13:36:49.706Z,100607.19
2022-08-29T13:39:31.429Z,100603.38
2022-08-29T13:42:02.525Z,100602.56
2022-08-29T13:44:37.356Z,100613.28
2022-08-29T13:47:23.922Z,100603.09
2022-08-29T13:49:56.787Z,100608.03
2022-08-29T13:52:25.687Z,100600.25
2022-08-29T13:55:00.196Z,100590.53
2022-08-29T13:57:31.905Z,100591.91
2022-08-29T14:00:03.996Z,100590.09
2022-08-29T14:02:35.586Z,100580.28
2022-08-29T14:05:03.946Z,100579.91
2022-08-29T14:07:33.611Z,100567.81
2022-08-29T14:10:01.876Z,100563.75
2022-08-29T14:12:33.446Z,100574.53
2022-08-29T14:15:09.765Z,100574.53
2022-08-29T14:17:41.581Z,100569.78
2022-08-29T14:20:10.463Z,100567.97
2022-08-29T14:22:39.065Z,100574.22
2022-08-29T14:25:09.468Z,100562.78
2022-08-29T14:27:38.711Z,100553.31
2022-08-29T14:30:09.510Z,100557.09
2022-08-29T14:32:37.885Z,100561.66
2022-08-29T14:35:07.395Z,100558.94
2022-08-29T14:37:35.955Z,100561.50
2022-08-29T14:40:08.869Z,100558.03
2022-08-29T14:42:37.779Z,100553.69
2022-08-29T14:45:07.854Z,100556.72
2022-08-29T14:47:35.988Z,100552.13
2022-08-29T14:50:06.297Z,100559.63
2022-08-29T14:52:35.019Z,100546.56
2022-08-29T14:55:03.427Z,100547.91
2022-08-29T14:57:31.555Z,100548.47
2022-08-29T14:59:59.699Z,100542.19
2022-08-29T15:02:28.019Z,100545.09
2022-08-29T15:04:58.503Z,100546.13
2022-08-29T15:07:27.244Z,100538.34
2022-08-29T15:09:55.499Z,100541.88
2022-08-29T15:12:27.823Z,100545.50
2022-08-29T15:14:57.020Z,100544.97
2022-08-29T15:17:25.998Z,100542.25
2022-08-29T15:22:43.494Z,100539.38
2022-08-29T15:25:11.709Z,100535.34
2022-08-29T15:27:39.987Z,100531.28
2022-08-29T15:30:09.708Z,100529.38
2022-08-29T15:32:39.204Z,100530.66
2022-08-29T15:35:08.031Z,100516.06
2022-08-29T15:37:45.283Z,100528.47
2022-08-29T15:40:13.980Z,100520.03
2022-08-29T15:42:42.321Z,100516.78
2022-08-29T15:45:11.466Z,100521.59
2022-08-29T15:47:40.153Z,100525.09
2022-08-29T15:50:14.622Z,100516.97
2022-08-29T15:52:42.945Z,100512.38
2022-08-29T15:55:12.808Z,100510.16
2022-08-29T15:57:51.943Z,100510.34
2022-08-29T16:00:30.729Z,100504.59
2022-08-29T16:03:02.822Z,100507.34
2022-08-29T16:05:32.447Z,100501.13
2022-08-29T16:08:01.106Z,100505.69
2022-08-29T16:10:30.136Z,100510.56
2022-08-29T16:12:58.701Z,100500.13
2022-08-29T16:15:28.922Z,100507.34
2022-08-29T16:17:59.074Z,100507.91
2022-08-29T16:20:27.321Z,100501.63
2022-08-29T16:22:56.347Z,100499.47
2022-08-29T16:25:25.883Z,100491.88
2022-08-29T16:27:54.227Z,100495.13
2022-08-29T16:30:22.800Z,100489.44
2022-08-29T16:32:51.570Z,100497.72
2022-08-29T16:35:20.434Z,100494.34
2022-08-29T16:37:53.275Z,100493.13
2022-08-29T16:40:32.677Z,100489.25
2022-08-29T16:43:02.437Z,100491.63
2022-08-29T16:45:31.246Z,100482.66
2022-08-29T16:47:59.866Z,100482.59
2022-08-29T16:50:29.222Z,100481.78
2022-08-29T16:52:57.551Z,100480.47
2022-08-29T16:55:29.884Z,100488.19
2022-08-29T16:58:17.759Z,100481.69
2022-08-29T17:00:49.158Z,100481.56
2022-08-29T17:03:20.165Z,100481.19
2022-08-29T17:05:49.493Z,100470.38
2022-08-29T17:08:18.036Z,100472.22
2022-08-29T17:10:46.857Z,100471.25
2022-08-29T17:13:15.851Z,100469.94
2022-08-29T17:15:44.060Z,100471.47
2022-08-29T17:18:13.360Z,100471.47
2022-08-29T17:20:41.770Z,100477.41
2022-08-29T17:23:16.012Z,100479.31
2022-08-29T17:25:44.366Z,100484.59
2022-08-29T17:28:19.788Z,100492.50
2022-08-29T17:30:49.606Z,100501.84
2022-08-29T17:33:21.341Z,100494.53
2022-08-29T17:35:49.935Z,100499.00
2022-08-29T17:38:18.813Z,100502.22
2022-08-29T17:40:48.955Z,100500.22
2022-08-29T17:43:19.015Z,100506.28
2022-08-29T17:45:48.567Z,100505.47
2022-08-29T17:48:19.978Z,100511.88
2022-08-29T17:50:50.137Z,100518.59
2022-08-29T17:53:19.690Z,100531.44
2022-08-29T17:55:50.568Z,100530.69
2022-08-29T17:58:20.726Z,100541.22
2022-08-29T18:00:49.540Z,100544.16
2022-08-29T18:03:19.514Z,100547.69
2022-08-29T18:05:47.658Z,100552.94
2022-08-29T18:08:15.959Z,100553.03
2022-08-29T18:10:44.217Z,100555.50
2022-08-29T18:13:13.681Z,100556.06
2022-08-29T18:15:43.182Z,100562.84
2022-08-29T18:18:11.545Z,100564.44
2022-08-29T18:20:41.180Z,100572.00
2022-08-29T18:23:09.456Z,100577.25
2022-08-29T18:25:37.668Z,100578.28
2022-08-29T18:28:08.305Z,100583.25
2022-08-29T18:30:36.921Z,100586.72
2022-08-29T18:33:07.001Z,100580.84
2022-08-29T18:35:35.668Z,100586.78
2022-08-29T18:38:03.831Z,100594.91
2022-08-29T18:40:34.462Z,100598.47
2022-08-29T18:43:06.588Z,100599.38
2022-08-29T18:45:39.071Z,100606.81
2022-08-29T18:48:08.081Z,100609.97
2022-08-29T18:50:36.756Z,100618.41
2022-08-29T18:53:12.970Z,100620.16
2022-08-29T18:55:51.068Z,100621.78
2022-08-29T18:58:22.534Z,100628.41
2022-08-29T19:00:51.071Z,100622.66
2022-08-29T19:03:19.772Z,100627.03
2022-08-29T19:05:50.513Z,100635.94
2022-08-29T19:08:21.341Z,100638.84
2022-08-29T19:10:49.554Z,100641.75
2022-08-29T19:13:22.275Z,100643.81
2022-08-29T19:15:58.432Z,100650.38
2022-08-29T19:18:27.807Z,100654.31
2022-08-29T19:21:09.673Z,100649.41
2022-08-29T19:23:41.282Z,100643.25
2022-08-29T19:26:14.981Z,100647.75
2022-08-29T19:28:43.888Z,100645.31
2022-08-29T19:31:13.467Z,100647.75
2022-08-29T19:33:43.605Z,100648.38
2022-08-29T19:36:12.025Z,100641.59
2022-08-29T19:38:41.775Z,100646.94
2022-08-29T19:41:11.189Z,100644.72
2022-08-29T19:43:41.025Z,100654.44
2022-08-29T19:46:16.505Z,100632.88
2022-08-29T19:48:48.645Z,100640.09
2022-08-29T19:51:21.825Z,100642.16
2022-08-29T19:53:57.077Z,100649.81
2022-08-29T19:56:29.433Z,100659.31
2022-08-29T19:58:59.631Z,100643.72
2022-08-29T20:01:28.399Z,100652.19
2022-08-29T20:03:56.920Z,100654.03
2022-08-29T20:06:27.040Z,100661.69
2022-08-29T20:08:55.599Z,100659.00
2022-08-29T20:11:26.241Z,100673.41
2022-08-29T20:13:58.451Z,100667.19
2022-08-29T20:16:29.929Z,100668.00
2022-08-29T20:18:58.961Z,100662.63
2022-08-29T20:21:28.085Z,100663.03
2022-08-29T20:23:58.218Z,100663.03
2022-08-29T20:26:32.179Z,100670.47
2022-08-29T20:29:02.872Z,100673.16
2022-08-29T20:31:31.139Z,100666.59
2022-08-29T20:33:59.377Z,100676.53
2022-08-29T20:36:49.128Z,100674.50
2022-08-29T20:39:19.564Z,100675.16
2022-08-29T20:41:55.326Z,100680.91
2022-08-29T20:44:29.115Z,100675.78
2022-08-29T20:46:59.957Z,100679.72
2022-08-29T20:49:28.244Z,100684.00
2022-08-29T20:51:56.363Z,100686.69
2022-08-29T20:54:25.265Z,100684.41
2022-08-29T20:56:53.757Z,100695.09
2022-08-29T20:59:26.303Z,100704.53
2022-08-29T21:01:55.635Z,100714.16
2022-08-29T21:04:42.660Z,100713.88
2022-08-29T21:07:13.795Z,100722.00
2022-08-29T21:09:44.294Z,100719.31
2022-08-29T21:12:14.251Z,100718.91
2022-08-29T21:14:42.764Z,100712.28
2022-08-29T21:17:13.479Z,100717.66
2022-08-29T21:19:42.117Z,100714.97
2022-08-29T21:22:12.581Z,100725.03
2022-08-29T21:24:41.010Z,100721.44
2022-08-29T21:27:09.443Z,100718.94
2022-08-29T21:29:37.736Z,100721.84
2022-08-29T21:32:06.043Z,100726.75
2022-08-29T21:34:34.257Z,100728.59
2022-08-29T21:37:02.416Z,100729.81
2022-08-29T21:39:30.683Z,100730.03
2022-08-29T21:42:02.720Z,100730.84
2022-08-29T21:44:31.661Z,100731.88
2022-08-29T21:47:00.462Z,100721.84
2022-08-29T21:49:30.490Z,100726.00
2022-08-29T21:51:59.415Z,100736.53
2022-08-29T21:54:27.792Z,100742.34
2022-08-29T21:56:56.058Z,100751.44
2022-08-29T21:59:25.452Z,100750.69
2022-08-29T22:01:55.079Z,100749.91
2022-08-29T22:04:29.139Z,100756.97
2022-08-29T22:06:59.536Z,100762.56
2022-08-29T22:09:29.135Z,100758.91
2022-08-29T22:11:57.864Z,100757.28
2022-08-29T22:14:46.551Z,100764.91
2022-08-29T22:17:15.606Z,100769.47
2022-08-29T22:19:45.025Z,100765.81
2022-08-29T22:22:13.320Z,100772.22
2022-08-29T22:24:44.419Z,100773.47
2022-08-29T22:27:12.635Z,100775.97
2022-08-29T22:29:40.743Z,100776.41
2022-08-29T22:32:09.612Z,100778.84
2022-08-29T22:34:37.749Z,100781.56
2022-08-29T22:37:06.870Z,100776.63
2022-08-29T22:39:37.388Z,100772.53
2022-08-29T22:42:06.746Z,100774.38
2022-08-29T22:45:02.320Z,100773.34
2022-08-29T22:47:23.544Z,100776.22
2022-08-29T22:49:58.166Z,100784.66
2022-08-29T22:52:26.323Z,100784.25
2022-08-29T22:54:54.863Z,100779.94
2022-08-29T22:57:23.218Z,100777.94
2022-08-29T22:59:51.511Z,100776.28
2022-08-29T23:02:21.245Z,100773.59
2022-08-29T23:04:50.779Z,100771.56
2022-08-29T23:07:19.609Z,100789.63
2022-08-29T23:09:47.845Z,100787.97
2022-08-29T23:12:16.539Z,100788.16
2022-08-29T23:14:48.652Z,100788.56
2022-08-29T23:17:17.980Z,100792.69
2022-08-29T23:19:46.606Z,100787.75
2022-08-29T23:22:19.026Z,100784.69
2022-08-29T23:24:57.585Z,100787.78
2022-08-29T23:27:30.859Z,100787.38
2022-08-29T23:30:00.174Z,100790.28
2022-08-29T23:32:28.784Z,100794.19
2022-08-29T23:34:57.128Z,100795.41
2022-08-29T23:37:25.583Z,100790.47
2022-08-29T23:39:54.154Z,100787.38
2022-08-29T23:42:22.425Z,100790.50
2022-08-29T23:44:50.784Z,100792.16
2022-08-29T23:47:19.426Z,100790.31
2022-08-29T23:49:48.286Z,100789.06
2022-08-29T23:52:16.805Z,100783.72
2022-08-29T23:54:45.012Z,100793.78
2022-08-29T23:57:13.327Z,100795.25
